Time;durP1;ratioP1;P1;durP2;ratioP2;P2;SDS_P1;SDS_P2;PMS_P1;PMS_P2;Temp;Humidity;BMP_temperature;BMP_pressure;BME280_temperature;BME280_humidity;BME280_pressure;Samples;Min_cycle;Max_cycle;Signal;HPM_P1;HPM_P2
2021/07/18 00:00:44;;;;;;;1.42;1.33;;;26.40;57.40;;;;;;5089082;28;20532;-64
2021/07/18 00:03:11;;;;;;;1.20;1.20;;;26.40;57.40;;;;;;5090054;28;20071;-64
2021/07/18 00:05:39;;;;;;;1.80;1.70;;;26.40;57.30;;;;;;5090837;28;20048;-64
2021/07/18 00:08:07;;;;;;;1.77;1.65;;;26.40;57.30;;;;;;5079153;28;20119;-64
2021/07/18 00:10:35;;;;;;;1.60;1.52;;;26.40;57.30;;;;;;5086110;28;20470;-63
2021/07/18 00:13:02;;;;;;;1.50;1.40;;;26.50;57.30;;;;;;5089131;28;20420;-64
2021/07/18 00:15:30;;;;;;;1.88;1.75;;;26.50;57.30;;;;;;5090485;28;20052;-64
2021/07/18 00:17:57;;;;;;;2.13;1.98;;;26.50;57.30;;;;;;5090567;28;20509;-64
2021/07/18 00:20:24;;;;;;;1.60;1.50;;;26.50;57.30;;;;;;5089744;28;20083;-64
2021/07/18 00:22:51;;;;;;;1.17;1.17;;;26.50;57.30;;;;;;5090448;28;20573;-63
2021/07/18 00:25:18;;;;;;;1.25;1.25;;;26.40;57.20;;;;;;5090473;28;20087;-64
2021/07/18 00:27:45;;;;;;;1.48;1.38;;;26.40;57.20;;;;;;5090507;28;20552;-64
2021/07/18 00:30:14;;;;;;;1.40;1.40;;;26.40;57.20;;;;;;5089280;28;20083;-64
2021/07/18 00:32:42;;;;;;;1.60;1.50;;;26.40;57.20;;;;;;5089899;28;20509;-64
2021/07/18 00:35:10;;;;;;;1.60;1.50;;;26.40;57.20;;;;;;5090257;28;20130;-64
2021/07/18 00:37:37;;;;;;;1.65;1.55;;;26.40;57.20;;;;;;5090092;28;20125;-64
2021/07/18 00:40:06;;;;;;;1.80;1.70;;;26.40;57.20;;;;;;5090047;28;20048;-65
2021/07/18 00:42:33;;;;;;;1.50;1.40;;;26.40;57.20;;;;;;5070841;28;20065;-64
2021/07/18 00:45:00;;;;;;;1.73;1.63;;;26.40;57.20;;;;;;5077134;28;20076;-64
2021/07/18 00:47:27;;;;;;;2.67;2.00;;;26.40;57.10;;;;;;5077723;28;20724;-64
2021/07/18 00:49:55;;;;;;;1.40;1.30;;;26.40;57.20;;;;;;5089816;28;20048;-64
2021/07/18 00:52:22;;;;;;;1.83;1.73;;;26.40;57.10;;;;;;5089501;28;20044;-64
2021/07/18 00:54:51;;;;;;;1.70;1.60;;;26.40;57.10;;;;;;5089189;28;20726;-64
2021/07/18 00:57:18;;;;;;;2.03;1.55;;;26.40;57.10;;;;;;5089926;28;20046;-64
2021/07/18 00:59:45;;;;;;;1.30;1.20;;;26.40;57.10;;;;;;5089984;28;20075;-64
2021/07/18 01:02:12;;;;;;;1.35;1.25;;;26.40;57.10;;;;;;5089448;28;20044;-64
2021/07/18 01:04:40;;;;;;;1.48;1.38;;;26.40;57.10;;;;;;5089852;28;20052;-64
2021/07/18 01:07:08;;;;;;;1.70;1.60;;;26.40;57.10;;;;;;5089657;28;20083;-64
2021/07/18 01:09:36;;;;;;;1.92;1.40;;;26.40;57.10;;;;;;5087408;28;20048;-65
2021/07/18 01:12:04;;;;;;;1.80;1.70;;;26.40;57.10;;;;;;5089492;28;20134;-64
2021/07/18 01:14:31;;;;;;;1.60;1.50;;;26.40;57.10;;;;;;5071209;28;20102;-64
2021/07/18 01:16:59;;;;;;;2.08;1.55;;;26.40;57.10;;;;;;5089515;28;20075;-64
2021/07/18 01:19:32;;;;;;;1.30;1.30;;;26.40;57.10;;;;;;5089518;28;20052;-64
2021/07/18 01:22:01;;;;;;;1.30;1.20;;;26.40;57.10;;;;;;5088300;28;20123;-63
2021/07/18 01:24:31;;;;;;;1.40;1.40;;;26.40;57.10;;;;;;5088069;28;20052;-64
2021/07/18 01:26:59;;;;;;;1.45;1.40;;;26.40;57.10;;;;;;5088380;28;20044;-63
2021/07/18 01:29:27;;;;;;;1.52;1.42;;;26.50;57.20;;;;;;5088344;28;20046;-64
2021/07/18 01:31:55;;;;;;;1.50;1.40;;;26.50;57.20;;;;;;5087737;28;20146;-64
2021/07/18 01:34:23;;;;;;;1.15;1.15;;;26.50;57.20;;;;;;5087388;28;20074;-64
2021/07/18 01:36:51;;;;;;;1.30;1.30;;;26.50;57.10;;;;;;5089255;28;20048;-64
2021/07/18 01:39:19;;;;;;;1.52;1.42;;;26.50;57.10;;;;;;5087748;28;20048;-64
2021/07/18 01:41:51;;;;;;;1.70;1.60;;;26.50;57.10;;;;;;5087512;28;20123;-64
2021/07/18 01:44:18;;;;;;;1.38;1.30;;;26.50;57.00;;;;;;5082221;28;20067;-64
2021/07/18 01:46:45;;;;;;;1.55;1.45;;;26.50;57.00;;;;;;5068632;28;20120;-64
2021/07/18 01:49:16;;;;;;;1.48;1.38;;;26.50;57.00;;;;;;5068482;28;20132;-65
2021/07/18 01:51:43;;;;;;;;;;;26.50;57.00;;;;;;5051990;28;20127;-64
2021/07/18 01:54:11;;;;;;;1.10;1.10;;;26.50;57.00;;;;;;5068079;28;19920;-64
2021/07/18 01:56:40;;;;;;;1.73;1.23;;;26.50;57.00;;;;;;5086386;28;20047;-64
2021/07/18 01:59:08;;;;;;;1.23;1.20;;;26.50;57.00;;;;;;5087830;28;20048;-64
2021/07/18 02:01:35;;;;;;;1.50;1.40;;;26.50;57.00;;;;;;5071223;28;20107;-64
2021/07/18 02:04:03;;;;;;;1.40;1.30;;;26.50;57.00;;;;;;5088537;28;20379;-64
2021/07/18 02:06:31;;;;;;;1.60;1.50;;;26.50;57.00;;;;;;5088546;28;20059;-64
2021/07/18 02:09:00;;;;;;;1.50;1.40;;;26.50;57.00;;;;;;5088395;28;20079;-64
2021/07/18 02:11:30;;;;;;;1.35;1.25;;;26.50;57.00;;;;;;5088096;28;20136;-64
2021/07/18 02:13:59;;;;;;;2.00;1.10;;;26.50;57.00;;;;;;5088036;28;20065;-64
2021/07/18 02:16:30;;;;;;;1.63;1.52;;;26.50;57.00;;;;;;5088769;28;20060;-64
2021/07/18 02:19:06;;;;;;;1.17;1.17;;;26.40;56.90;;;;;;5089483;28;20097;-64
2021/07/18 02:21:39;;;;;;;1.55;1.45;;;26.40;56.90;;;;;;5088798;28;20332;-64
2021/07/18 02:24:07;;;;;;;1.40;1.30;;;26.50;57.10;;;;;;5088657;28;20048;-64
2021/07/18 02:26:35;;;;;;;1.25;1.25;;;26.40;56.90;;;;;;5088198;28;20052;-64
2021/07/18 02:29:02;;;;;;;1.40;1.30;;;26.40;56.90;;;;;;5088099;28;20505;-64
2021/07/18 02:31:30;;;;;;;2.03;1.20;;;26.40;56.90;;;;;;5087321;28;20044;-64
2021/07/18 02:33:57;;;;;;;1.40;1.30;;;26.50;57.00;;;;;;5086636;28;20055;-63
2021/07/18 02:36:24;;;;;;;1.50;1.45;;;26.40;56.90;;;;;;5088517;28;20050;-64
2021/07/18 02:38:54;;;;;;;1.50;1.40;;;26.40;56.90;;;;;;5086345;28;20423;-63
2021/07/18 02:41:21;;;;;;;1.30;1.30;;;26.40;56.90;;;;;;5088139;28;20139;-64
2021/07/18 02:43:48;;;;;;;1.48;1.38;;;26.40;56.90;;;;;;5084883;28;20131;-64
2021/07/18 02:46:15;;;;;;;1.30;1.25;;;26.40;56.90;;;;;;5082025;28;20052;-64
2021/07/18 02:48:42;;;;;;;1.23;1.23;;;26.40;56.90;;;;;;5087833;28;20097;-64
2021/07/18 02:51:10;;;;;;;1.02;1.02;;;26.40;56.90;;;;;;5069200;28;20106;-64
2021/07/18 02:53:37;;;;;;;1.48;1.38;;;26.40;56.90;;;;;;5087943;28;20044;-64
2021/07/18 02:56:05;;;;;;;1.55;1.45;;;26.40;56.90;;;;;;5088185;28;20132;-64
2021/07/18 02:58:32;;;;;;;1.45;1.35;;;26.50;56.90;;;;;;5087780;28;20048;-64
2021/07/18 03:00:59;;;;;;;1.20;1.20;;;26.50;56.90;;;;;;5070258;28;20056;-64
2021/07/18 03:03:26;;;;;;;1.30;1.27;;;26.50;56.90;;;;;;5086588;28;20123;-64
2021/07/18 03:05:53;;;;;;;1.90;1.50;;;26.50;56.90;;;;;;5086681;28;20104;-65
2021/07/18 03:08:20;;;;;;;1.10;1.10;;;26.50;56.80;;;;;;5086900;28;20119;-64
2021/07/18 03:10:47;;;;;;;1.33;1.23;;;26.50;56.80;;;;;;5087525;28;20166;-64
2021/07/18 03:13:14;;;;;;;0.95;0.95;;;26.50;56.80;;;;;;5087461;28;20135;-64
2021/07/18 03:15:41;;;;;;;1.23;1.13;;;26.50;56.80;;;;;;5069384;28;20052;-64
2021/07/18 03:18:09;;;;;;;1.48;1.40;;;26.50;56.80;;;;;;5088084;28;20048;-64
2021/07/18 03:20:36;;;;;;;1.25;1.20;;;26.50;56.80;;;;;;5081605;28;20047;-64
2021/07/18 03:23:03;;;;;;;1.35;1.35;;;26.50;56.80;;;;;;5075326;28;20170;-64
2021/07/18 03:25:31;;;;;;;0.90;0.90;;;26.50;56.80;;;;;;5087907;28;20079;-64
2021/07/18 03:27:58;;;;;;;1.35;1.35;;;26.50;56.80;;;;;;5072365;28;20048;-64
2021/07/18 03:30:25;;;;;;;1.30;1.30;;;26.50;56.80;;;;;;5067287;28;20080;-64
2021/07/18 03:32:58;;;;;;;1.40;1.30;;;26.50;56.80;;;;;;5066500;28;20580;-64
2021/07/18 03:35:25;;;;;;;1.30;1.27;;;26.50;56.80;;;;;;5067620;28;20083;-64
2021/07/18 03:37:52;;;;;;;1.60;1.50;;;26.50;56.80;;;;;;5079831;28;20445;-64
2021/07/18 03:40:20;;;;;;;1.35;1.35;;;26.50;56.70;;;;;;5075667;28;20654;-64
2021/07/18 03:42:47;;;;;;;1.52;1.42;;;26.50;56.70;;;;;;5086818;28;20040;-64
2021/07/18 03:45:14;;;;;;;1.42;1.33;;;26.50;56.70;;;;;;5087441;28;20568;-64
2021/07/18 03:47:42;;;;;;;1.55;1.45;;;26.50;56.70;;;;;;5087304;28;20080;-64
2021/07/18 03:50:10;;;;;;;1.38;1.27;;;26.50;56.70;;;;;;5090072;28;20048;-64
2021/07/18 03:52:37;;;;;;;1.15;1.13;;;26.50;56.70;;;;;;5090890;28;20127;-63
2021/07/18 03:55:12;;;;;;;0.90;0.90;;;26.50;56.70;;;;;;5090442;28;20052;-64
2021/07/18 03:57:40;;;;;;;1.10;1.10;;;26.50;56.70;;;;;;5091243;28;20055;-65
2021/07/18 04:00:07;;;;;;;1.40;1.38;;;26.50;56.70;;;;;;5091033;28;20492;-64
2021/07/18 04:02:34;;;;;;;1.10;1.10;;;26.50;56.70;;;;;;5090953;28;20079;-64
2021/07/18 04:05:02;;;;;;;1.15;1.10;;;26.50;56.70;;;;;;5090719;28;20516;-64
2021/07/18 04:07:33;;;;;;;0.80;0.80;;;26.50;56.70;;;;;;5091016;28;20056;-64
2021/07/18 04:10:01;;;;;;;1.10;1.10;;;26.50;56.70;;;;;;5091032;28;20101;-64
2021/07/18 04:12:29;;;;;;;1.70;1.60;;;26.50;56.60;;;;;;5091075;28;20494;-64
2021/07/18 04:14:56;;;;;;;1.38;1.27;;;26.50;56.50;;;;;;5089859;28;20452;-64
2021/07/18 04:17:23;;;;;;;0.93;0.93;;;26.60;56.60;;;;;;5070302;28;20553;-64
2021/07/18 04:19:50;;;;;;;1.30;1.30;;;26.60;56.50;;;;;;5070115;28;20051;-64
2021/07/18 04:22:18;;;;;;;1.45;1.38;;;26.60;56.50;;;;;;5090331;28;20527;-64
2021/07/18 04:24:46;;;;;;;1.30;1.20;;;26.60;56.40;;;;;;5090509;28;20076;-64
2021/07/18 04:27:13;;;;;;;1.60;1.50;;;26.70;56.40;;;;;;5090360;28;20113;-64
2021/07/18 04:29:40;;;;;;;1.40;1.25;;;26.70;56.30;;;;;;5090173;28;20238;-64
2021/07/18 04:32:08;;;;;;;1.20;1.20;;;26.70;56.20;;;;;;5090275;28;20054;-64
2021/07/18 04:34:35;;;;;;;1.02;0.95;;;26.70;56.10;;;;;;5089016;28;20553;-64
2021/07/18 04:37:02;;;;;;;1.10;1.10;;;26.80;56.10;;;;;;5090259;28;20059;-64
2021/07/18 04:39:30;;;;;;;1.10;1.10;;;26.80;56.00;;;;;;5090717;28;20119;-64
2021/07/18 04:41:59;;;;;;;1.63;1.52;;;26.80;55.80;;;;;;5089685;28;20130;-64
2021/07/18 04:44:26;;;;;;;1.02;1.02;;;26.90;55.80;;;;;;5090599;28;20196;-65
2021/07/18 04:46:56;;;;;;;1.40;1.30;;;26.90;55.70;;;;;;5088181;28;20135;-64
2021/07/18 04:49:24;;;;;;;1.48;1.38;;;26.90;55.60;;;;;;5090495;28;20451;-64
2021/07/18 04:51:52;;;;;;;1.23;1.23;;;26.90;55.50;;;;;;5088079;28;20044;-64
2021/07/18 04:54:20;;;;;;;1.48;1.38;;;27.00;55.50;;;;;;5090195;28;20085;-64
2021/07/18 04:56:47;;;;;;;0.88;0.88;;;27.00;55.40;;;;;;5089374;28;20127;-64
2021/07/18 04:59:14;;;;;;;1.02;1.02;;;27.00;55.40;;;;;;5090276;28;20115;-64
2021/07/18 05:01:41;;;;;;;1.05;1.05;;;27.00;55.30;;;;;;5088767;28;20127;-64
2021/07/18 05:04:09;;;;;;;1.08;1.08;;;27.10;55.30;;;;;;5089870;28;20052;-64
2021/07/18 05:06:37;;;;;;;1.23;1.23;;;27.00;55.20;;;;;;5088253;28;20070;-64
2021/07/18 05:09:04;;;;;;;1.20;1.10;;;27.00;55.30;;;;;;5089542;28;20086;-64
2021/07/18 05:11:31;;;;;;;1.40;1.30;;;27.00;55.40;;;;;;5089425;28;20509;-64
2021/07/18 05:13:58;;;;;;;1.55;1.45;;;26.90;55.60;;;;;;5089206;28;20040;-64
2021/07/18 05:16:25;;;;;;;1.30;1.30;;;26.80;55.80;;;;;;5077057;28;20044;-64
2021/07/18 05:18:54;;;;;;;1.23;1.23;;;26.70;56.20;;;;;;5069065;28;20135;-64
2021/07/18 05:21:21;;;;;;;1.60;1.50;;;26.60;56.60;;;;;;5075087;28;20054;-64
2021/07/18 05:23:48;;;;;;;1.35;1.25;;;26.40;57.10;;;;;;5089242;28;20651;-64
2021/07/18 05:26:15;;;;;;;1.40;1.40;;;26.10;57.50;;;;;;5089517;28;20480;-64
2021/07/18 05:28:42;;;;;;;1.33;1.23;;;25.90;58.30;;;;;;5071186;28;20048;-64
2021/07/18 05:31:09;;;;;;;1.75;1.50;;;25.60;59.10;;;;;;5089259;28;20727;-64
2021/07/18 05:33:37;;;;;;;1.80;1.70;;;25.30;59.90;;;;;;5088297;28;20123;-64
2021/07/18 05:36:04;;;;;;;1.35;1.33;;;25.00;60.40;;;;;;5088999;28;20131;-64
2021/07/18 05:38:32;;;;;;;1.73;1.63;;;24.80;61.00;;;;;;5088896;28;20040;-64
2021/07/18 05:40:59;;;;;;;1.83;1.73;;;24.60;61.50;;;;;;5088733;28;20111;-64
2021/07/18 05:43:26;;;;;;;1.73;1.63;;;24.40;61.90;;;;;;5088913;28;20036;-64
2021/07/18 05:45:54;;;;;;;2.25;2.13;;;24.30;62.20;;;;;;5088042;28;20090;-64
2021/07/18 05:48:24;;;;;;;2.17;2.08;;;24.20;62.40;;;;;;5088922;28;20044;-64
2021/07/18 05:50:51;;;;;;;;;;;24.10;62.70;;;;;;5089070;28;20054;-65
2021/07/18 05:53:19;;;;;;;2.63;2.42;;;24.10;62.90;;;;;;5088729;28;20381;-64
2021/07/18 05:55:46;;;;;;;3.38;2.22;;;24.00;63.10;;;;;;5088540;28;20044;-64
2021/07/18 05:58:13;;;;;;;2.13;2.03;;;23.90;63.20;;;;;;5088581;28;20126;-64
2021/07/18 06:00:40;;;;;;;2.30;2.17;;;23.90;63.50;;;;;;5087671;28;20110;-64
2021/07/18 06:03:08;;;;;;;2.60;2.30;;;23.80;63.70;;;;;;5088940;28;20040;-64
2021/07/18 06:05:35;;;;;;;2.78;2.58;;;23.80;64.10;;;;;;5071209;28;20075;-64
2021/07/18 06:08:03;;;;;;;2.85;2.65;;;23.70;64.30;;;;;;5088135;28;20739;-64
2021/07/18 06:10:31;;;;;;;3.00;2.75;;;23.60;64.60;;;;;;5088399;28;20047;-64
2021/07/18 06:12:58;;;;;;;2.50;2.30;;;23.60;65.00;;;;;;5088068;28;20040;-64
2021/07/18 06:15:26;;;;;;;2.67;2.47;;;23.50;65.30;;;;;;5082399;28;20048;-64
2021/07/18 06:17:53;;;;;;;2.83;2.63;;;23.50;65.60;;;;;;5068312;28;20117;-64
2021/07/18 06:20:20;;;;;;;3.35;3.05;;;23.50;65.90;;;;;;5051225;28;20104;-65
2021/07/18 06:22:51;;;;;;;3.10;2.80;;;23.40;66.20;;;;;;5067656;28;20119;-63
2021/07/18 06:25:18;;;;;;;;;;;23.40;66.50;;;;;;5068786;28;20605;-64
2021/07/18 06:27:46;;;;;;;2.70;2.50;;;23.40;66.80;;;;;;5068100;28;20011;-64
2021/07/18 06:30:14;;;;;;;3.25;2.97;;;23.30;66.90;;;;;;5077650;28;20102;-64
2021/07/18 06:32:42;;;;;;;3.33;3.03;;;23.30;67.20;;;;;;5088361;28;20080;-64
2021/07/18 06:35:10;;;;;;;3.42;3.13;;;23.30;67.40;;;;;;5088280;28;20098;-64
2021/07/18 06:37:38;;;;;;;3.70;3.40;;;23.20;67.60;;;;;;5088062;28;20123;-64
2021/07/18 06:40:08;;;;;;;3.45;3.20;;;23.20;67.70;;;;;;5088602;28;20051;-64
2021/07/18 06:42:35;;;;;;;3.65;3.35;;;23.20;67.90;;;;;;5087888;28;20139;-64
2021/07/18 06:45:06;;;;;;;3.78;3.47;;;23.20;68.00;;;;;;5087288;28;20109;-64
2021/07/18 06:47:33;;;;;;;3.45;3.15;;;23.20;68.70;;;;;;5086509;28;20127;-64
2021/07/18 06:50:01;;;;;;;3.38;3.08;;;23.10;68.20;;;;;;5088256;28;20048;-64
2021/07/18 06:52:28;;;;;;;3.83;3.50;;;23.20;68.20;;;;;;5086198;28;20052;-64
2021/07/18 06:54:55;;;;;;;3.53;3.22;;;23.20;68.20;;;;;;5069859;28;20102;-64
2021/07/18 06:57:23;;;;;;;3.72;3.42;;;23.10;68.30;;;;;;5087673;28;20471;-64
2021/07/18 06:59:50;;;;;;;4.00;3.45;;;23.20;68.40;;;;;;5068620;28;20083;-64
2021/07/18 07:02:17;;;;;;;3.42;3.13;;;23.10;68.40;;;;;;5072556;28;20087;-64
2021/07/18 07:04:45;;;;;;;4.47;3.92;;;23.20;68.50;;;;;;5088473;28;20044;-64
2021/07/18 07:07:12;;;;;;;3.95;3.63;;;23.20;68.50;;;;;;5066918;28;20745;-64
2021/07/18 07:09:39;;;;;;;3.88;3.58;;;23.20;68.50;;;;;;5067794;28;20051;-66
2021/07/18 07:12:07;;;;;;;4.13;3.72;;;23.20;68.50;;;;;;5067700;28;20131;-64
2021/07/18 07:14:35;;;;;;;4.07;3.78;;;23.20;68.40;;;;;;5067341;28;20131;-64
2021/07/18 07:17:03;;;;;;;4.25;3.85;;;23.20;68.40;;;;;;5067548;28;20053;-64
2021/07/18 07:19:30;;;;;;;3.97;3.67;;;23.30;68.30;;;;;;5069707;28;20044;-65
2021/07/18 07:21:57;;;;;;;4.00;3.60;;;23.30;68.30;;;;;;5087844;28;20062;-64
2021/07/18 07:24:25;;;;;;;4.47;4.07;;;23.30;68.30;;;;;;5089036;28;20048;-64
2021/07/18 07:26:52;;;;;;;4.45;4.05;;;23.30;68.30;;;;;;5092240;28;20404;-64
2021/07/18 07:29:19;;;;;;;3.58;3.33;;;23.30;68.30;;;;;;5090369;28;20131;-64
2021/07/18 07:31:46;;;;;;;4.25;3.85;;;23.30;68.30;;;;;;5090689;28;20457;-64
2021/07/18 07:34:13;;;;;;;4.18;3.78;;;23.30;68.30;;;;;;5091377;28;20217;-66
2021/07/18 07:36:40;;;;;;;4.80;4.03;;;23.30;68.30;;;;;;5090366;28;20079;-64
2021/07/18 07:39:07;;;;;;;4.32;3.92;;;23.30;68.50;;;;;;5091434;28;20048;-64
2021/07/18 07:41:35;;;;;;;4.82;4.43;;;23.30;68.60;;;;;;5091595;28;20150;-64
2021/07/18 07:44:02;;;;;;;4.93;4.43;;;23.30;68.60;;;;;;5091200;28;20072;-66
2021/07/18 07:46:29;;;;;;;6.95;4.55;;;23.30;68.70;;;;;;5093384;28;20052;-64
2021/07/18 07:48:58;;;;;;;4.40;4.00;;;23.30;68.60;;;;;;5095178;28;20059;-64
2021/07/18 07:51:25;;;;;;;5.13;4.53;;;23.30;68.60;;;;;;5093773;28;20083;-64
2021/07/18 07:53:52;;;;;;;4.35;3.95;;;23.40;68.60;;;;;;5095648;28;20074;-64
2021/07/18 07:56:19;;;;;;;4.57;4.18;;;23.30;68.50;;;;;;5083233;28;20045;-64
2021/07/18 07:58:47;;;;;;;5.15;4.20;;;23.40;68.40;;;;;;5075423;28;20072;-64
2021/07/18 08:01:15;;;;;;;4.50;4.10;;;23.40;68.40;;;;;;5083440;28;20127;-64
2021/07/18 08:03:42;;;;;;;4.95;4.47;;;23.40;68.30;;;;;;5090459;28;20040;-64
2021/07/18 08:06:10;;;;;;;4.95;4.47;;;23.40;68.40;;;;;;5089246;28;20040;-64
2021/07/18 08:08:37;;;;;;;5.05;4.47;;;23.40;68.30;;;;;;5089715;28;20066;-64
2021/07/18 08:11:08;;;;;;;4.70;4.30;;;23.40;68.40;;;;;;5070093;28;20044;-64
2021/07/18 08:13:37;;;;;;;5.07;4.65;;;23.40;68.50;;;;;;5069564;28;20067;-65
2021/07/18 08:16:05;;;;;;;5.40;4.90;;;23.40;68.50;;;;;;5079955;28;20051;-66
2021/07/18 08:18:33;;;;;;;4.80;4.40;;;23.40;68.60;;;;;;5078258;28;20766;-64
2021/07/18 08:21:00;;;;;;;5.50;5.00;;;23.30;68.60;;;;;;5090210;28;20048;-64
2021/07/18 08:23:30;;;;;;;5.40;4.90;;;23.30;68.70;;;;;;5086741;28;20043;-64
2021/07/18 08:25:58;;;;;;;5.35;4.85;;;23.30;68.80;;;;;;5089787;28;20068;-64
2021/07/18 08:28:25;;;;;;;5.57;5.07;;;23.30;68.90;;;;;;5089680;28;20074;-64
2021/07/18 08:30:52;;;;;;;4.90;4.50;;;23.30;68.90;;;;;;5089837;28;20564;-64
2021/07/18 08:33:19;;;;;;;5.70;5.00;;;23.30;69.00;;;;;;5090196;28;20153;-64
2021/07/18 08:35:47;;;;;;;5.00;4.57;;;23.20;69.10;;;;;;5088880;28;20439;-64
2021/07/18 08:38:14;;;;;;;4.93;4.45;;;23.20;69.10;;;;;;5084440;28;20076;-64
2021/07/18 08:40:42;;;;;;;4.68;4.28;;;23.20;69.20;;;;;;5207427;22;20323;-59
2021/07/18 08:43:09;;;;;;;5.53;5.00;;;23.20;69.20;;;;;;5089606;28;20098;-59
2021/07/18 08:45:36;;;;;;;5.55;5.00;;;23.20;69.30;;;;;;5089502;28;20044;-59
2021/07/18 08:48:04;;;;;;;5.82;5.18;;;23.20;69.30;;;;;;5089390;28;20473;-59
2021/07/18 08:50:31;;;;;;;5.15;4.65;;;23.20;69.30;;;;;;5088342;28;20132;-59
2021/07/18 08:52:59;;;;;;;5.55;4.90;;;23.20;69.40;;;;;;5089511;28;20135;-59
2021/07/18 08:55:26;;;;;;;5.78;5.20;;;23.20;69.40;;;;;;5088894;28;20055;-59
2021/07/18 08:57:54;;;;;;;5.90;4.97;;;23.10;69.50;;;;;;5089683;28;20055;-59
2021/07/18 09:00:22;;;;;;;5.57;5.00;;;23.10;69.50;;;;;;5075118;28;20076;-60
2021/07/18 09:02:50;;;;;;;5.70;5.20;;;23.10;69.60;;;;;;5068398;28;20045;-59
2021/07/18 09:05:18;;;;;;;5.60;4.82;;;23.10;69.60;;;;;;5068631;28;20044;-60
2021/07/18 09:07:49;;;;;;;5.88;5.35;;;23.10;69.70;;;;;;5068727;28;20052;-59
2021/07/18 09:10:22;;;;;;;5.40;4.90;;;23.10;69.70;;;;;;5068042;28;20083;-59
2021/07/18 09:13:05;;;;;;;5.90;5.40;;;23.00;69.60;;;;;;5068369;28;20144;-60
2021/07/18 09:15:48;;;;;;;5.53;5.03;;;23.00;69.70;;;;;;5068454;28;20744;-59
2021/07/18 09:18:18;;;;;;;5.47;4.85;;;23.10;69.70;;;;;;5067886;28;20059;-59
2021/07/18 09:20:48;;;;;;;5.63;4.80;;;23.10;70.20;;;;;;5067051;28;20481;-59
2021/07/18 09:23:18;;;;;;;6.82;5.00;;;23.10;69.60;;;;;;5071699;28;20091;-59
2021/07/18 09:25:46;;;;;;;6.53;5.82;;;23.10;69.50;;;;;;5074196;28;20106;-60
2021/07/18 09:28:19;;;;;;;6.13;5.40;;;23.10;69.50;;;;;;5065223;28;20052;-60
2021/07/18 09:30:49;;;;;;;4.80;4.40;;;23.20;69.50;;;;;;5064407;28;20049;-59
2021/07/18 09:33:25;;;;;;;5.03;4.53;;;23.20;69.40;;;;;;5066225;28;20066;-60
2021/07/18 09:36:12;;;;;;;5.53;5.03;;;23.20;69.30;;;;;;5065392;28;20143;-59
2021/07/18 09:38:42;;;;;;;5.65;5.07;;;23.20;69.30;;;;;;5074317;28;20071;-60
2021/07/18 09:41:15;;;;;;;;;;;23.20;69.20;;;;;;5067615;28;20076;-60
2021/07/18 09:43:43;;;;;;;5.05;4.55;;;23.30;69.30;;;;;;5070133;28;20002;-59
2021/07/18 09:46:11;;;;;;;5.82;5.25;;;23.30;69.20;;;;;;5084851;28;20059;-59
2021/07/18 09:48:44;;;;;;;6.95;5.05;;;23.30;69.60;;;;;;5086402;28;20076;-60
2021/07/18 09:51:13;;;;;;;5.70;5.20;;;23.30;69.00;;;;;;5083365;28;20052;-59
2021/07/18 09:53:42;;;;;;;5.90;5.30;;;23.40;69.10;;;;;;5073489;28;20564;-59
2021/07/18 09:56:17;;;;;;;6.70;5.65;;;23.40;69.00;;;;;;5085292;28;20270;-59
2021/07/18 09:58:53;;;;;;;5.03;4.63;;;23.40;68.90;;;;;;5076663;28;20119;-60
2021/07/18 10:01:21;;;;;;;6.07;5.07;;;23.40;68.90;;;;;;5065651;28;20135;-59
2021/07/18 10:03:50;;;;;;;5.78;5.13;;;23.50;68.80;;;;;;5078878;28;20315;-60
2021/07/18 10:06:20;;;;;;;5.55;5.03;;;23.50;68.80;;;;;;5085853;28;20078;-59
2021/07/18 10:08:52;;;;;;;5.85;5.20;;;23.50;68.60;;;;;;5086285;28;20480;-60
2021/07/18 10:11:22;;;;;;;5.20;4.70;;;23.60;68.50;;;;;;5085390;28;20200;-60
2021/07/18 10:13:51;;;;;;;6.10;5.35;;;23.60;68.40;;;;;;5085600;28;20522;-60
2021/07/18 10:16:20;;;;;;;6.00;5.40;;;23.60;68.20;;;;;;5069281;28;20080;-60
2021/07/18 10:18:49;;;;;;;5.10;4.60;;;23.60;68.10;;;;;;5065536;28;20097;-60
2021/07/18 10:21:20;;;;;;;5.18;4.60;;;23.70;68.00;;;;;;5065795;28;20076;-59
2021/07/18 10:23:49;;;;;;;5.65;5.15;;;23.70;67.90;;;;;;5064197;28;20135;-60
2021/07/18 10:26:18;;;;;;;5.18;4.68;;;23.70;67.80;;;;;;5065116;28;20045;-59
2021/07/18 10:28:47;;;;;;;5.32;4.82;;;23.70;67.80;;;;;;5065164;28;20083;-59
2021/07/18 10:31:21;;;;;;;5.68;5.18;;;23.70;67.80;;;;;;5064990;28;20135;-60
2021/07/18 10:33:49;;;;;;;5.60;5.10;;;23.70;67.70;;;;;;5065110;28;20194;-59
2021/07/18 10:36:21;;;;;;;5.15;4.70;;;23.70;67.70;;;;;;5066141;28;20080;-60
2021/07/18 10:38:48;;;;;;;5.63;5.03;;;23.70;67.70;;;;;;5064267;28;20543;-60
2021/07/18 10:41:15;;;;;;;5.93;5.32;;;23.70;67.70;;;;;;5047552;28;20041;-59
2021/07/18 10:43:48;;;;;;;5.68;5.13;;;23.70;67.80;;;;;;5065019;28;20079;-59
2021/07/18 10:46:36;;;;;;;5.55;5.05;;;23.70;67.80;;;;;;5065605;28;20068;-59
2021/07/18 10:49:03;;;;;;;5.35;4.85;;;23.70;67.90;;;;;;5065099;28;20052;-59
2021/07/18 10:51:36;;;;;;;5.65;5.15;;;23.60;67.90;;;;;;5071080;28;20084;-59
2021/07/18 10:54:23;;;;;;;5.10;4.60;;;23.70;67.90;;;;;;5084283;28;20131;-60
2021/07/18 10:56:57;;;;;;;5.25;4.75;;;23.70;67.90;;;;;;5084978;28;20310;-59
2021/07/18 10:59:38;;;;;;;5.50;5.00;;;23.70;67.90;;;;;;5086102;28;20384;-60
2021/07/18 11:02:09;;;;;;;5.50;5.00;;;23.70;67.90;;;;;;5089107;28;20052;-59
2021/07/18 11:04:49;;;;;;;5.43;4.93;;;23.70;67.90;;;;;;5071755;28;20082;-59
2021/07/18 11:07:26;;;;;;;5.88;5.13;;;23.70;67.80;;;;;;5087778;28;20131;-59
2021/07/18 11:10:00;;;;;;;5.38;4.88;;;23.70;67.80;;;;;;5089593;28;20058;-59
2021/07/18 11:12:34;;;;;;;5.40;4.90;;;23.70;67.70;;;;;;5088675;28;20052;-60
2021/07/18 11:15:28;;;;;;;5.78;5.18;;;23.70;67.70;;;;;;5089644;28;20155;-59
2021/07/18 11:18:08;;;;;;;5.00;4.55;;;23.70;67.80;;;;;;5088913;28;20424;-60
2021/07/18 11:20:54;;;;;;;5.32;4.78;;;23.70;67.70;;;;;;5088731;28;20502;-60
2021/07/18 11:23:38;;;;;;;6.13;5.53;;;23.70;67.70;;;;;;5087791;28;20130;-59
2021/07/18 11:26:09;;;;;;;5.63;5.13;;;23.70;67.70;;;;;;5089131;28;20105;-59
2021/07/18 11:28:49;;;;;;;5.50;5.00;;;23.80;67.70;;;;;;5088547;28;20056;-60
2021/07/18 11:31:20;;;;;;;5.72;5.15;;;23.70;67.80;;;;;;5088679;28;20296;-59
2021/07/18 11:33:51;;;;;;;5.75;4.88;;;23.70;67.80;;;;;;5070377;28;20045;-60
2021/07/18 11:36:22;;;;;;;5.35;4.85;;;23.80;67.90;;;;;;5088878;28;20044;-60
2021/07/18 11:38:49;;;;;;;;;;;23.70;67.80;;;;;;5089315;28;20352;-60
2021/07/18 11:41:21;;;;;;;5.75;5.15;;;23.70;67.90;;;;;;5088807;28;20186;-59
2021/07/18 11:43:51;;;;;;;5.43;4.93;;;23.70;67.90;;;;;;5088309;28;20458;-59
2021/07/18 11:46:21;;;;;;;5.57;5.07;;;23.70;67.90;;;;;;5088859;28;20117;-59
2021/07/18 11:48:55;;;;;;;5.25;4.75;;;23.70;68.50;;;;;;5088568;28;20075;-59
2021/07/18 11:51:24;;;;;;;6.72;5.50;;;23.80;68.00;;;;;;5083489;28;20048;-60
2021/07/18 11:53:53;;;;;;;5.72;5.18;;;23.70;67.90;;;;;;5068082;28;20088;-60
2021/07/18 11:56:35;;;;;;;5.50;5.00;;;23.80;67.90;;;;;;5067413;28;20080;-59
2021/07/18 11:59:12;;;;;;;5.10;4.60;;;23.80;67.90;;;;;;5068295;28;20132;-59
2021/07/18 12:01:44;;;;;;;5.38;4.95;;;23.80;67.90;;;;;;5067980;28;20135;-59
2021/07/18 12:04:16;;;;;;;5.82;5.22;;;23.80;67.90;;;;;;5067710;28;20048;-59
2021/07/18 12:06:43;;;;;;;5.63;5.13;;;23.80;68.00;;;;;;5068255;28;20454;-59
2021/07/18 12:09:19;;;;;;;5.40;4.90;;;23.80;67.90;;;;;;5067550;28;20094;-59
2021/07/18 12:11:54;;;;;;;6.20;5.00;;;23.90;67.90;;;;;;5066466;28;20090;-59
2021/07/18 12:14:21;;;;;;;5.57;5.05;;;23.80;67.70;;;;;;5067981;28;20041;-60
2021/07/18 12:16:53;;;;;;;4.97;4.47;;;23.90;67.60;;;;;;5050357;28;20045;-59
2021/07/18 12:19:24;;;;;;;5.00;4.60;;;24.00;67.60;;;;;;5067409;28;20056;-60
2021/07/18 12:21:52;;;;;;;5.70;5.13;;;23.90;67.40;;;;;;5067335;28;20084;-60
2021/07/18 12:24:34;;;;;;;5.53;4.75;;;24.00;67.40;;;;;;5068002;28;20151;-59
2021/07/18 12:27:05;;;;;;;5.28;4.78;;;24.00;67.30;;;;;;5066826;28;20048;-59
2021/07/18 12:29:43;;;;;;;5.10;4.60;;;24.10;67.20;;;;;;5067350;28;20194;-59
2021/07/18 12:32:11;;;;;;;6.50;4.85;;;24.10;67.10;;;;;;5067661;28;20098;-60
2021/07/18 12:34:43;;;;;;;5.38;4.88;;;24.10;67.00;;;;;;5067211;28;20070;-59
2021/07/18 12:37:12;;;;;;;5.60;5.07;;;24.10;66.80;;;;;;5067575;28;20573;-59
2021/07/18 12:39:47;;;;;;;5.90;4.85;;;24.10;66.80;;;;;;5066679;28;20388;-59
2021/07/18 12:42:23;;;;;;;6.00;4.93;;;24.20;66.70;;;;;;5066450;28;20488;-59
2021/07/18 12:44:56;;;;;;;4.93;4.50;;;24.20;66.70;;;;;;5066918;28;20129;-60
2021/07/18 12:47:29;;;;;;;5.43;4.93;;;24.10;66.70;;;;;;5066715;28;20082;-59
2021/07/18 12:50:15;;;;;;;5.70;5.03;;;24.10;66.60;;;;;;5067089;28;20099;-59
2021/07/18 12:52:56;;;;;;;5.32;4.82;;;24.10;66.70;;;;;;5064683;28;20056;-59
2021/07/18 12:55:43;;;;;;;5.32;4.78;;;24.10;66.70;;;;;;5086708;28;20083;-59
2021/07/18 12:58:15;;;;;;;5.55;4.88;;;24.20;66.60;;;;;;5087143;28;20520;-59